Time;durP1;ratioP1;P1;durP2;ratioP2;P2;SDS_P1;SDS_P2;PMS_P1;PMS_P2;Temp;Humidity;BMP_temperature;BMP_pressure;BME280_temperature;BME280_humidity;BME280_pressure;Samples;Min_cycle;Max_cycle;Signal;HPM_P1;HPM_P2
2024/03/06 00:00:36;;;;;;;41.70;24.58;;;;;;;8.28;70.86;99998.00;6214070;23;20088;-90
2024/03/06 00:03:03;;;;;;;38.60;24.20;;;;;;;8.29;70.89;99998.84;6215995;23;20056;-90
2024/03/06 00:05:58;;;;;;;36.47;23.85;;;;;;;8.26;71.06;99988.50;6215956;23;20056;-90
2024/03/06 00:08:25;;;;;;;42.20;24.35;;;;;;;8.29;71.16;99985.72;6214647;23;20464;-91
2024/03/06 00:14:24;;;;;;;41.20;23.63;;;;;;;8.31;70.59;100004.88;6215676;23;20020;-90
2024/03/06 00:16:51;;;;;;;35.60;24.05;;;;;;;8.30;70.78;100001.41;6213612;23;20028;-90
2024/03/06 00:19:22;;;;;;;41.10;26.70;;;;;;;8.28;70.80;100003.25;6213787;23;20100;-90
2024/03/06 00:21:48;;;;;;;36.45;24.63;;;;;;;8.32;71.03;100006.56;6213891;23;20104;-90
2024/03/06 00:24:16;;;;;;;41.20;24.63;;;;;;;8.32;71.26;100006.56;6213823;23;20044;-90
2024/03/06 00:26:44;;;;;;;40.80;25.52;;;;;;;8.34;71.11;100010.00;6215165;23;20052;-90
2024/03/06 00:32:37;;;;;;;38.50;23.77;;;;;;;8.36;70.77;100018.63;6215090;23;20108;-90
2024/03/06 00:35:04;;;;;;;37.25;23.73;;;;;;;8.37;70.95;100022.13;6215487;23;20447;-90
2024/03/06 00:37:52;;;;;;;40.08;24.50;;;;;;;8.31;71.09;100021.47;6214162;23;20020;-90
2024/03/06 00:40:18;;;;;;;36.33;24.02;;;;;;;8.37;70.74;100025.59;6213889;23;20017;-90
2024/03/06 00:42:45;;;;;;;38.90;24.75;;;;;;;8.37;71.13;100027.38;6214118;23;20380;-90
2024/03/06 00:45:19;;;;;;;37.25;24.17;;;;;;;8.34;70.99;100026.56;6215587;23;20021;-91
2024/03/06 00:47:46;;;;;;;39.00;23.65;;;;;;;8.39;71.01;100029.00;6215705;23;20028;-90
2024/03/06 00:50:12;;;;;;;40.85;25.98;;;;;;;8.39;71.00;100026.38;6214898;23;20032;-90
2024/03/06 00:52:45;;;;;;;40.38;25.45;;;;;;;8.38;70.95;100034.31;6215580;23;20324;-90
2024/03/06 00:55:12;;;;;;;37.97;25.40;;;;;;;8.42;71.06;100041.13;6214182;23;20017;-90
2024/03/06 00:57:38;;;;;;;37.65;24.58;;;;;;;8.42;70.74;100033.25;6213600;23;20032;-90
2024/03/06 01:00:16;;;;;;;37.25;24.27;;;;;;;8.42;70.81;100044.63;6213944;23;20021;-90
2024/03/06 01:02:42;;;;;;;42.00;26.27;;;;;;;8.43;70.69;100038.44;6215273;23;20032;-90
2024/03/06 01:05:17;;;;;;;37.10;25.27;;;;;;;8.41;70.74;100042.91;6213714;23;20785;-90
2024/03/06 01:07:43;;;;;;;38.58;25.15;;;;;;;8.45;70.74;100047.09;6213664;23;20036;-90
2024/03/06 01:10:10;;;;;;;37.15;24.48;;;;;;;8.45;70.76;100044.47;6214718;23;20070;-90
2024/03/06 01:12:39;;;;;;;41.88;25.48;;;;;;;8.43;70.73;100045.47;6215453;23;20059;-90
2024/03/06 01:15:08;;;;;;;39.63;24.95;;;;;;;8.44;70.60;100045.41;6215397;23;20096;-90
2024/03/06 01:17:34;;;;;;;37.25;25.85;;;;;;;8.43;70.76;100046.31;6214042;23;20469;-90
2024/03/06 01:20:03;;;;;;;44.58;25.63;;;;;;;8.43;70.60;100050.69;6213993;23;20435;-90
2024/03/06 01:22:30;;;;;;;39.15;26.02;;;;;;;8.42;70.62;100049.00;6215468;23;20347;-90
2024/03/06 01:24:56;;;;;;;39.85;26.20;;;;;;;8.41;70.55;100061.25;6213972;23;20052;-90
2024/03/06 01:27:23;;;;;;;40.85;25.92;;;;;;;8.39;70.77;100060.47;6215109;23;20056;-90
2024/03/06 01:29:51;;;;;;;46.08;27.35;;;;;;;8.37;70.72;100062.31;6213431;23;20075;-90
2024/03/06 01:32:17;;;;;;;39.47;25.63;;;;;;;8.37;70.56;100069.34;6216604;23;20028;-90
2024/03/06 01:34:44;;;;;;;48.42;26.30;;;;;;;8.34;70.78;100065.91;6217045;23;20024;-90
2024/03/06 01:37:11;;;;;;;40.97;26.10;;;;;;;8.32;70.76;100064.28;6217232;23;20455;-90
2024/03/06 01:39:37;;;;;;;46.60;27.10;;;;;;;8.31;70.83;100081.81;6216580;23;20067;-90
2024/03/06 01:42:35;;;;;;;39.00;25.92;;;;;;;8.26;71.35;100078.50;6215873;23;20510;-90
2024/03/06 01:45:02;;;;;;;40.97;26.83;;;;;;;8.31;71.05;100083.56;6215588;23;20021;-90
2024/03/06 01:47:29;;;;;;;44.08;27.13;;;;;;;8.32;71.04;100082.63;6217080;23;20051;-90
2024/03/06 01:49:56;;;;;;;46.47;27.67;;;;;;;8.32;71.36;100091.38;6216782;23;20084;-90
2024/03/06 01:52:43;;;;;;;41.85;27.13;;;;;;;8.30;71.63;100098.44;6216991;23;20024;-90
2024/03/06 01:55:11;;;;;;;48.65;26.65;;;;;;;8.35;71.08;100098.25;6216835;23;20095;-90
2024/03/06 01:57:40;;;;;;;43.80;25.70;;;;;;;8.35;71.18;100100.88;6216798;23;20025;-90
2024/03/06 02:00:13;;;;;;;46.58;27.77;;;;;;;8.35;71.41;100093.84;6216870;23;20075;-90
2024/03/06 02:02:42;;;;;;;46.42;26.55;;;;;;;8.37;71.29;100101.66;6215438;23;20024;-90
2024/03/06 02:05:09;;;;;;;41.28;26.58;;;;;;;8.38;70.90;100098.13;6217045;23;20432;-90
2024/03/06 02:10:46;;;;;;;40.53;26.80;;;;;;;8.39;71.11;100091.97;6216218;23;20028;-90
2024/03/06 02:16:40;;;;;;;41.65;26.73;;;;;;;8.42;71.30;100102.34;6216876;23;20406;-90
2024/03/06 02:19:08;;;;;;;43.20;27.02;;;;;;;8.43;71.37;100101.41;6214917;23;20020;-90
2024/03/06 02:21:35;;;;;;;43.53;27.80;;;;;;;8.46;71.18;100100.44;6216636;23;20021;-90
2024/03/06 02:24:47;;;;;;;39.20;26.33;;;;;;;8.42;71.73;100099.72;6215343;23;20339;-90
2024/03/06 02:27:14;;;;;;;46.65;28.17;;;;;;;8.50;70.99;100106.38;6216504;23;20351;-90
2024/03/06 02:29:40;;;;;;;44.17;27.90;;;;;;;8.52;71.48;100104.56;6216627;23;20490;-90
2024/03/06 02:32:08;;;;;;;44.17;28.08;;;;;;;8.52;71.42;100109.81;6214647;23;20027;-90
2024/03/06 02:35:08;;;;;;;46.08;28.50;;;;;;;8.49;71.79;100102.94;6216181;23;20451;-90
2024/03/06 02:37:35;;;;;;;44.88;27.70;;;;;;;8.55;70.89;100107.94;6216498;23;20343;-90
2024/03/06 02:40:14;;;;;;;45.20;29.23;;;;;;;8.51;71.12;100106.31;6216396;23;20021;-90
2024/03/06 02:46:03;;;;;;;42.50;27.48;;;;;;;8.54;71.07;100108.84;6216285;23;20032;-90
2024/03/06 02:48:31;;;;;;;46.65;29.92;;;;;;;8.53;71.36;100111.53;6216568;23;20031;-89
2024/03/06 02:50:58;;;;;;;46.67;30.48;;;;;;;8.51;71.07;100105.47;6215004;23;20390;-90
2024/03/06 02:53:26;;;;;;;44.92;27.83;;;;;;;8.51;71.03;100113.31;6214759;23;20056;-90
2024/03/06 02:56:31;;;;;;;48.08;30.90;;;;;;;8.46;71.30;100110.91;6216373;23;20067;-90
2024/03/06 02:59:04;;;;;;;48.70;30.67;;;;;;;8.46;71.50;100103.88;6094843;23;20065;-90
2024/03/06 03:01:31;;;;;;;;;;;;;;;8.48;71.43;100103.81;6071552;23;20415;-91
2024/03/06 03:03:59;;;;;;;45.53;29.40;;;;;;;8.50;70.94;100107.25;6071129;23;19917;-90
2024/03/06 03:06:26;;;;;;;50.88;28.65;;;;;;;8.50;71.05;100103.75;6094931;23;20022;-90
2024/03/06 03:09:01;;;;;;;52.53;32.90;;;;;;;8.45;71.38;100112.69;6071071;23;20069;-90
2024/03/06 03:11:27;;;;;;;51.65;30.50;;;;;;;8.47;71.24;100100.38;6210068;23;20099;-90
2024/03/06 03:14:01;;;;;;;48.15;30.83;;;;;;;8.41;71.37;100103.22;6214859;23;20079;-90
2024/03/06 03:16:29;;;;;;;46.67;29.75;;;;;;;8.44;71.02;100102.25;6214455;23;20021;-90
2024/03/06 03:18:56;;;;;;;49.65;28.95;;;;;;;8.43;71.17;100101.41;6214842;23;20021;-90
2024/03/06 03:21:45;;;;;;;46.63;31.75;;;;;;;8.38;71.83;100106.00;6214630;23;20083;-89
2024/03/06 03:24:12;;;;;;;42.22;27.63;;;;;;;8.43;71.27;100114.53;6216150;23;20027;-90
2024/03/06 03:26:45;;;;;;;49.92;29.65;;;;;;;8.39;71.19;100119.94;6216117;23;20367;-90
2024/03/06 03:29:12;;;;;;;44.42;29.00;;;;;;;8.41;70.69;100116.34;6214344;23;20021;-90
2024/03/06 03:31:39;;;;;;;43.85;28.70;;;;;;;8.39;71.19;100123.44;6214518;23;20095;-90
2024/03/06 03:34:06;;;;;;;43.97;27.63;;;;;;;8.38;71.11;100119.13;6214309;23;20059;-90
2024/03/06 03:36:33;;;;;;;45.97;28.73;;;;;;;8.39;70.98;100127.81;6214396;23;20099;-90
2024/03/06 03:39:00;;;;;;;44.65;28.70;;;;;;;8.37;71.09;100127.88;6214346;23;20044;-90
2024/03/06 03:41:27;;;;;;;43.78;28.42;;;;;;;8.37;71.40;100127.06;6214507;23;20056;-90
2024/03/06 03:43:53;;;;;;;42.85;28.58;;;;;;;8.37;70.94;100130.50;6215972;23;20095;-90
2024/03/06 03:49:35;;;;;;;44.20;27.63;;;;;;;8.38;70.81;100139.25;6215779;23;20043;-90
2024/03/06 03:52:01;;;;;;;46.33;27.20;;;;;;;8.36;70.92;100139.31;6214595;23;20100;-89
2024/03/06 03:54:44;;;;;;;45.08;26.95;;;;;;;8.30;71.16;100140.41;6214422;23;20100;-90
2024/03/06 03:57:11;;;;;;;42.03;25.88;;;;;;;8.33;71.13;100131.56;6214174;23;20059;-90
2024/03/06 03:59:38;;;;;;;46.70;24.77;;;;;;;8.31;70.81;100138.66;6215707;23;20099;-90
2024/03/06 04:02:05;;;;;;;42.47;24.27;;;;;;;8.28;70.85;100139.63;6214391;23;20056;-90
2024/03/06 04:04:32;;;;;;;49.35;26.00;;;;;;;8.24;70.51;100143.28;6214437;23;20439;-90
2024/03/06 04:07:01;;;;;;;44.45;26.00;;;;;;;8.23;70.93;100140.72;6214235;23;20081;-90
2024/03/06 04:10:07;;;;;;;45.55;26.10;;;;;;;8.14;71.30;100134.06;6215505;23;20071;-90
2024/03/06 04:12:33;;;;;;;43.53;24.42;;;;;;;8.16;70.68;100143.63;6215371;23;20027;-90
2024/03/06 04:15:00;;;;;;;44.72;26.75;;;;;;;8.16;71.26;100142.75;6214043;23;20027;-90
2024/03/06 04:17:35;;;;;;;49.38;24.58;;;;;;;8.10;71.00;100149.09;6213934;23;20025;-90
2024/03/06 04:20:02;;;;;;;44.53;24.13;;;;;;;8.11;70.96;100142.09;6214337;23;20031;-90
2024/03/06 04:22:46;;;;;;;47.63;24.45;;;;;;;8.04;71.30;100144.94;6213939;23;20096;-90
2024/03/06 04:25:13;;;;;;;44.50;24.05;;;;;;;8.08;71.05;100156.19;6213938;23;20048;-90
2024/03/06 04:27:39;;;;;;;36.78;22.48;;;;;;;8.06;70.89;100150.13;6214951;23;20515;-90
2024/03/06 04:30:21;;;;;;;43.58;24.23;;;;;;;8.02;71.24;100154.66;6215140;23;20063;-90
2024/03/06 04:32:48;;;;;;;49.83;23.70;;;;;;;8.06;71.15;100155.38;6214210;23;20439;-90
2024/03/06 04:35:15;;;;;;;43.88;24.38;;;;;;;8.05;71.24;100154.53;6214010;23;20021;-90
2024/03/06 04:37:56;;;;;;;42.67;24.02;;;;;;;8.03;71.47;100158.97;6214193;23;20392;-90
2024/03/06 04:40:25;;;;;;;45.25;24.20;;;;;;;8.06;71.12;100158.00;6213620;23;20024;-90
2024/03/06 04:42:57;;;;;;;45.85;24.95;;;;;;;8.04;71.27;100167.69;6215528;23;20028;-90
2024/03/06 04:45:24;;;;;;;49.00;24.58;;;;;;;8.06;70.96;100168.47;6214196;23;20017;-90
2024/03/06 04:48:12;;;;;;;41.08;23.10;;;;;;;8.02;71.26;100177.38;6214413;23;20031;-90
2024/03/06 04:50:38;;;;;;;42.20;24.35;;;;;;;8.04;71.08;100180.81;6215305;23;20016;-89
2024/03/06 04:53:07;;;;;;;47.53;25.10;;;;;;;8.03;71.15;100185.19;6213869;23;20414;-90
2024/03/06 04:55:36;;;;;;;46.17;25.35;;;;;;;8.04;71.02;100180.81;6214069;23;20024;-90
2024/03/06 04:58:03;;;;;;;44.35;23.70;;;;;;;8.06;71.23;100184.22;6215567;23;20024;-90
2024/03/06 05:00:48;;;;;;;45.60;24.30;;;;;;;8.03;71.29;100181.69;6215283;23;20104;-90
2024/03/06 05:03:15;;;;;;;40.65;24.85;;;;;;;8.07;70.94;100188.53;6214076;23;20020;-90
2024/03/06 05:05:58;;;;;;;53.00;25.63;;;;;;;8.08;70.85;100190.25;6214852;23;20027;-90
2024/03/06 05:08:43;;;;;;;45.83;24.60;;;;;;;8.08;70.91;100190.25;6216081;23;20070;-90
2024/03/06 05:11:27;;;;;;;42.40;23.52;;;;;;;8.08;70.77;100190.25;6217267;23;20030;-90
2024/03/06 05:14:11;;;;;;;44.85;24.05;;;;;;;8.06;70.78;100194.69;6217321;23;20075;-90
2024/03/06 05:16:55;;;;;;;50.30;25.27;;;;;;;8.05;70.86;100206.97;6217213;23;20019;-90
2024/03/06 05:19:39;;;;;;;45.80;23.23;;;;;;;8.04;70.18;100207.88;6215800;23;20112;-90
2024/03/06 05:26:16;;;;;;;51.38;24.40;;;;;;;7.92;70.52;100203.09;6217254;23;20074;-90
2024/03/06 05:29:00;;;;;;;50.30;23.10;;;;;;;7.89;70.62;100201.44;6215854;23;20041;-90
2024/03/06 05:31:59;;;;;;;47.28;24.27;;;;;;;7.81;71.26;100209.63;6216893;23;20351;-89
2024/03/06 05:34:44;;;;;;;51.45;24.42;;;;;;;7.82;70.78;100216.56;6215739;23;20051;-89
2024/03/06 05:37:42;;;;;;;45.38;23.02;;;;;;;7.76;71.10;100216.81;6215856;23;20015;-90
2024/03/06 05:40:26;;;;;;;42.38;23.45;;;;;;;7.78;70.66;100217.59;6216797;23;20024;-90
2024/03/06 05:46:37;;;;;;;42.35;21.00;;;;;;;7.77;71.04;100233.38;6217195;23;20513;-91
2024/03/06 05:49:21;;;;;;;45.67;22.10;;;;;;;7.75;70.85;100224.72;6217011;23;20075;-91
2024/03/06 05:52:15;;;;;;;50.30;24.58;;;;;;;7.72;71.16;100241.41;6215784;23;20542;-92
2024/03/06 05:54:59;;;;;;;52.30;22.52;;;;;;;7.73;70.98;100240.50;6215737;23;20074;-91
2024/03/06 05:57:45;;;;;;;51.88;24.05;;;;;;;7.73;71.17;100243.13;6216992;23;20023;-90
2024/03/06 06:00:46;;;;;;;54.28;24.88;;;;;;;7.68;71.31;100251.16;6215961;23;20023;-91
2024/03/06 06:03:13;;;;;;;;;;;;;;;7.72;71.26;100254.53;6216646;23;20025;-92
2024/03/06 06:06:19;;;;;;;47.67;21.35;;;;;;;7.71;71.09;100252.81;6216059;23;19966;-91
2024/03/06 06:08:45;;;;;;;47.72;23.55;;;;;;;7.73;70.69;100260.63;6215749;23;20025;-91
2024/03/06 06:11:18;;;;;;;49.42;23.00;;;;;;;7.68;71.08;100259.03;6215636;23;20035;-92
2024/03/06 06:13:45;;;;;;;;;;;;;;;7.70;71.23;100266.81;6216271;23;20508;-91
2024/03/06 06:16:50;;;;;;;45.78;21.70;;;;;;;7.72;71.23;100266.75;6215361;23;19916;-91
2024/03/06 06:19:45;;;;;;;44.78;22.30;;;;;;;7.72;71.17;100266.75;6095832;23;20027;-91
2024/03/06 06:22:12;;;;;;;46.83;22.88;;;;;;;7.75;71.12;100267.50;6071844;23;20090;-91
2024/03/06 06:24:39;;;;;;;46.63;22.80;;;;;;;7.75;70.94;100270.13;6071788;23;20026;-91
2024/03/06 06:27:08;;;;;;;43.25;22.45;;;;;;;7.74;71.10;100281.50;6071786;23;20025;-91
2024/03/06 06:29:34;;;;;;;43.58;23.25;;;;;;;7.76;71.06;100289.31;6100316;23;20050;-92
2024/03/06 06:36:22;;;;;;;41.55;22.42;;;;;;;7.73;70.74;100297.31;6216822;23;20023;-91
2024/03/06 06:38:48;;;;;;;50.40;22.08;;;;;;;7.75;70.78;100292.84;6215108;23;20023;-92
2024/03/06 06:41:17;;;;;;;43.65;21.52;;;;;;;7.75;70.71;100309.44;6215309;23;20055;-90
2024/03/06 06:44:24;;;;;;;44.47;22.48;;;;;;;7.69;70.97;100305.28;6215198;23;20079;-91
2024/03/06 06:46:51;;;;;;;41.08;22.40;;;;;;;7.75;70.76;100319.06;6216836;23;20021;-92
2024/03/06 06:49:17;;;;;;;41.03;21.75;;;;;;;7.76;70.96;100323.38;6215557;23;20478;-91
2024/03/06 06:51:57;;;;;;;46.55;23.25;;;;;;;7.74;71.33;100326.06;6217038;23;20108;-91
2024/03/06 06:54:23;;;;;;;52.17;24.27;;;;;;;7.79;70.95;100325.91;6215126;23;20024;-91
2024/03/06 06:56:50;;;;;;;41.70;22.95;;;;;;;7.82;71.12;100331.03;6215555;23;20097;-91
2024/03/06 07:02:47;;;;;;;50.25;24.40;;;;;;;7.85;71.08;100336.16;6216888;23;20020;-91
2024/03/06 07:05:15;;;;;;;46.50;24.00;;;;;;;7.86;71.10;100340.50;6216757;23;20400;-91
2024/03/06 07:08:00;;;;;;;41.85;22.80;;;;;;;7.84;71.32;100339.69;6215998;23;20020;-91
2024/03/06 07:10:27;;;;;;;45.28;23.23;;;;;;;7.90;70.74;100342.09;6215142;23;20023;-91
2024/03/06 07:13:18;;;;;;;49.80;23.83;;;;;;;7.88;71.26;100346.53;6215537;23;20103;-93
2024/03/06 07:15:44;;;;;;;51.42;24.42;;;;;;;7.94;71.19;100345.47;6214808;23;20063;-92
2024/03/06 07:18:11;;;;;;;48.92;24.75;;;;;;;7.96;71.12;100356.72;6214806;23;20040;-92
2024/03/06 07:20:47;;;;;;;50.30;25.15;;;;;;;7.97;71.13;100360.22;6214796;23;20023;-92
2024/03/06 07:23:13;;;;;;;53.03;24.83;;;;;;;8.02;71.27;100358.28;6214630;23;20021;-91
2024/03/06 07:25:40;;;;;;;51.67;24.20;;;;;;;8.03;71.52;100358.22;6215570;23;20017;-92
2024/03/06 07:28:07;;;;;;;53.03;26.00;;;;;;;8.06;71.24;100360.75;6214605;23;20071;-91
2024/03/06 07:30:34;;;;;;;51.40;25.23;;;;;;;8.07;71.05;100365.06;6214743;23;20024;-92
2024/03/06 07:33:33;;;;;;;50.83;25.10;;;;;;;8.06;71.47;100360.75;6214885;23;20075;-91
2024/03/06 07:36:00;;;;;;;42.92;23.55;;;;;;;8.14;71.18;100370.06;6214752;23;20463;-92
2024/03/06 07:38:32;;;;;;;49.08;24.15;;;;;;;8.15;70.94;100377.06;6214589;23;20016;-92
2024/03/06 07:40:59;;;;;;;47.38;24.73;;;;;;;8.19;70.94;100371.63;6215014;23;20020;-91
2024/03/06 07:43:41;;;;;;;49.92;25.35;;;;;;;8.19;71.41;100376.03;6215140;23;20028;-91
2024/03/06 07:46:10;;;;;;;45.65;24.27;;;;;;;8.25;71.07;100381.03;6215013;23;20055;-92
2024/03/06 07:48:38;;;;;;;44.15;23.75;;;;;;;8.28;71.09;100380.06;6214756;23;20028;-92
2024/03/06 07:51:17;;;;;;;48.85;25.17;;;;;;;8.27;71.04;100394.97;6215877;23;20020;-92
2024/03/06 07:53:44;;;;;;;50.65;24.00;;;;;;;8.34;71.00;100391.19;6215215;23;20029;-91
2024/03/06 07:56:13;;;;;;;49.97;24.73;;;;;;;8.38;71.00;100393.69;6214249;23;20023;-92
2024/03/06 08:02:21;;;;;;;48.95;23.67;;;;;;;8.43;70.59;100392.63;6216316;23;20517;-92
2024/03/06 08:05:18;;;;;;;49.38;24.17;;;;;;;8.41;70.82;100401.47;6214666;23;20101;-91
2024/03/06 08:07:45;;;;;;;50.92;24.50;;;;;;;8.46;70.47;100400.34;6214466;23;20099;-92
2024/03/06 08:10:13;;;;;;;52.15;25.27;;;;;;;8.47;70.75;100401.22;6214927;23;20024;-92
2024/03/06 08:16:28;;;;;;;55.58;23.83;;;;;;;8.51;70.67;100405.44;6215876;23;20039;-92
2024/03/06 08:19:11;;;;;;;44.92;23.15;;;;;;;8.51;70.60;100417.69;6215019;23;20412;-92
2024/03/06 08:21:38;;;;;;;55.53;25.05;;;;;;;8.56;70.33;100416.63;6214975;23;20095;-91
2024/03/06 08:24:17;;;;;;;49.72;25.00;;;;;;;8.54;70.55;100421.09;6214823;23;20111;-91
2024/03/06 08:26:43;;;;;;;54.35;25.65;;;;;;;8.61;70.77;100432.22;6214527;23;20025;-92
2024/03/06 08:29:10;;;;;;;54.97;25.52;;;;;;;8.62;70.71;100419.94;6214780;23;20098;-91
2024/03/06 08:31:59;;;;;;;54.83;25.15;;;;;;;8.62;70.71;100430.44;6214507;23;20017;-92
2024/03/06 08:34:33;;;;;;;50.35;24.88;;;;;;;8.67;70.56;100433.75;6214638;23;20086;-91
2024/03/06 08:37:00;;;;;;;46.30;23.75;;;;;;;8.72;70.72;100435.28;6214248;23;20021;-92
2024/03/06 08:39:35;;;;;;;48.42;25.35;;;;;;;8.75;70.46;100438.72;6214625;23;20031;-92
2024/03/06 08:42:02;;;;;;;53.42;25.67;;;;;;;8.80;70.40;100442.88;6214470;23;20388;-92
2024/03/06 08:44:35;;;;;;;49.80;24.65;;;;;;;8.81;70.21;100448.97;6215696;23;20099;-91
2024/03/06 08:47:02;;;;;;;50.42;24.70;;;;;;;8.85;70.12;100450.56;6214965;23;20016;-92
2024/03/06 08:49:28;;;;;;;42.75;23.25;;;;;;;8.88;69.95;100458.31;6214051;23;20056;-92
2024/03/06 08:56:00;;;;;;;39.63;21.83;;;;;;;8.86;69.89;100462.78;6215764;23;20067;-92
2024/03/06 08:58:33;;;;;;;38.47;22.92;;;;;;;8.86;69.50;100468.88;6215518;23;20017;-92
2024/03/06 09:01:00;;;;;;;44.22;24.90;;;;;;;8.86;69.56;100466.25;6215395;23;20049;-92
2024/03/06 09:03:26;;;;;;;47.03;24.55;;;;;;;8.85;69.55;100472.44;6214742;23;20055;-92
2024/03/06 09:09:14;;;;;;;47.53;24.10;;;;;;;8.84;69.81;100475.09;6215890;23;20120;-92
2024/03/06 09:11:44;;;;;;;43.30;23.65;;;;;;;8.84;69.88;100473.34;6214490;23;20071;-92
2024/03/06 09:17:38;;;;;;;38.85;21.90;;;;;;;8.88;70.08;100475.84;6216289;23;20055;-92
2024/03/06 09:23:21;;;;;;;42.08;22.85;;;;;;;8.93;70.02;100477.38;6215498;23;20052;-92
2024/03/06 09:25:48;;;;;;;43.88;24.75;;;;;;;8.97;70.35;100486.84;6214596;23;20344;-92
2024/03/06 09:31:55;;;;;;;41.60;22.83;;;;;;;9.07;70.28;100494.34;6215719;23;20066;-91
2024/03/06 09:38:37;;;;;;;42.92;23.92;;;;;;;9.14;69.69;100506.34;6189093;23;20126;-92
2024/03/06 09:44:51;;;;;;;44.72;23.48;;;;;;;9.25;69.97;100508.56;6215640;23;20019;-91
2024/03/06 09:50:45;;;;;;;47.70;24.90;;;;;;;9.34;70.07;100523.09;6215308;23;20079;-92
2024/03/06 09:53:14;;;;;;;54.97;26.25;;;;;;;9.38;70.03;100519.41;6215962;23;20343;-92
2024/03/06 09:58:56;;;;;;;49.83;26.33;;;;;;;9.49;69.98;100519.84;6217503;23;20439;-92
2024/03/06 10:01:31;;;;;;;55.35;27.20;;;;;;;9.51;69.65;100531.19;6217799;23;20784;-92
2024/03/06 10:03:57;;;;;;;44.25;25.95;;;;;;;9.58;69.90;100526.53;6216148;23;20104;-92
2024/03/06 10:06:24;;;;;;;54.45;26.80;;;;;;;9.62;70.21;100528.13;6217402;23;20017;-92
2024/03/06 10:09:21;;;;;;;52.47;26.50;;;;;;;9.67;69.69;100524.41;6216097;23;20460;-92
2024/03/06 10:11:48;;;;;;;52.47;27.55;;;;;;;9.79;70.17;100542.31;6215758;23;20023;-92
2024/03/06 10:18:12;;;;;;;50.60;27.23;;;;;;;9.92;69.66;100537.44;6217307;23;20024;-92
2024/03/06 10:21:17;;;;;;;50.33;26.88;;;;;;;9.98;69.50;100541.59;6216954;23;20056;-92
2024/03/06 10:23:46;;;;;;;51.17;27.80;;;;;;;10.09;69.64;100539.34;6216011;23;20087;-92
2024/03/06 10:26:14;;;;;;;52.85;28.48;;;;;;;10.17;70.04;100534.59;6215496;23;20019;-92
2024/03/06 10:28:56;;;;;;;53.17;29.25;;;;;;;10.23;69.32;100536.13;6215402;23;20024;-92
2024/03/06 10:31:29;;;;;;;52.25;29.65;;;;;;;10.32;69.13;100536.66;6216749;23;20016;-92
2024/03/06 10:33:55;;;;;;;54.60;29.08;;;;;;;10.42;69.60;100537.94;6215433;23;20067;-92
2024/03/06 10:36:35;;;;;;;53.63;28.95;;;;;;;10.45;68.58;100543.13;6215334;23;20016;-92
2024/03/06 10:39:02;;;;;;;52.05;29.27;;;;;;;10.55;69.22;100544.41;6215936;23;20091;-92
2024/03/06 10:41:57;;;;;;;52.33;28.40;;;;;;;10.59;68.48;100550.41;6215006;23;20036;-92
2024/03/06 10:44:26;;;;;;;50.70;28.35;;;;;;;10.69;69.01;100550.84;6215769;23;20021;-92
2024/03/06 10:47:03;;;;;;;46.08;28.10;;;;;;;10.74;68.54;100548.88;6215703;23;20016;-92
2024/03/06 10:49:32;;;;;;;52.08;28.60;;;;;;;10.81;68.72;100555.56;6215286;23;20021;-92
2024/03/06 10:52:01;;;;;;;47.53;28.10;;;;;;;10.87;68.88;100556.22;6217287;23;20043;-92
2024/03/06 10:58:16;;;;;;;44.35;27.10;;;;;;;11.01;68.23;100564.34;6216531;23;20104;-92
2024/03/06 11:01:12;;;;;;;45.08;26.70;;;;;;;11.01;67.49;100566.97;6217013;23;20116;-93
2024/03/06 11:03:39;;;;;;;47.50;27.27;;;;;;;11.12;68.67;100560.34;6215434;23;20023;-92
2024/03/06 11:06:07;;;;;;;47.95;28.25;;;;;;;11.18;68.82;100570.63;6217090;23;20023;-92
2024/03/06 11:11:58;;;;;;;42.78;25.65;;;;;;;11.37;68.69;100573.25;6216949;23;20083;-92
2024/03/06 11:14:25;;;;;;;48.97;28.42;;;;;;;11.46;68.40;100572.81;6215087;23;20029;-92
2024/03/06 11:20:38;;;;;;;43.60;25.50;;;;;;;11.65;68.54;100581.59;6216480;23;20018;-92
2024/03/06 11:23:43;;;;;;;44.60;27.48;;;;;;;11.70;67.59;100577.81;6215552;23;20386;-92
2024/03/06 11:26:10;;;;;;;42.95;26.88;;;;;;;11.88;68.68;100571.72;6216060;23;20100;-92
2024/03/06 11:28:50;;;;;;;43.17;27.48;;;;;;;11.99;67.55;100574.66;6214875;23;20025;-92
2024/03/06 11:31:20;;;;;;;43.65;28.08;;;;;;;12.18;68.19;100571.16;6215113;23;20025;-92
2024/03/06 11:33:56;;;;;;;42.85;27.10;;;;;;;12.35;67.15;100565.88;6216940;23;20028;-92
2024/03/06 11:36:53;;;;;;;44.78;27.80;;;;;;;12.58;66.79;100570.88;6214971;23;20091;-93
2024/03/06 11:39:20;;;;;;;37.80;25.90;;;;;;;12.82;67.82;100575.81;6214797;23;20090;-92
2024/03/06 11:42:39;;;;;;;42.20;27.27;;;;;;;12.94;65.21;100567.22;6212281;23;20099;-92
2024/03/06 11:45:16;;;;;;;35.97;24.60;;;;;;;13.09;65.09;100576.09;6191811;23;20029;-93
2024/03/06 11:48:21;;;;;;;39.65;26.48;;;;;;;13.18;64.46;100582.69;6216476;23;20095;-92
2024/03/06 11:51:24;;;;;;;45.30;27.08;;;;;;;13.27;63.81;100576.03;6141348;23;20021;-92
2024/03/06 11:53:52;;;;;;;40.83;26.90;;;;;;;13.34;64.94;100585.31;6215023;23;20052;-92
2024/03/06 11:56:22;;;;;;;46.10;27.63;;;;;;;13.33;63.85;100582.75;6214401;23;20316;-92
2024/03/06 13:03:38;;;;;;;41.00;25.00;;;;;;;12.86;61.65;100611.72;6216626;22;20335;-90
2024/03/06 13:06:05;;;;;;;40.58;25.23;;;;;;;12.78;62.17;100609.44;6215308;23;20099;-87
2024/03/06 13:12:41;;;;;;;41.22;24.50;;;;;;;12.59;62.12;100610.41;6215572;23;20064;-91
2024/03/06 13:15:26;;;;;;;35.78;23.58;;;;;;;12.53;62.16;100615.16;6215495;23;20028;-90
2024/03/06 13:17:53;;;;;;;37.72;25.15;;;;;;;12.51;62.62;100613.47;6214144;23;20096;-90
2024/03/06 13:20:26;;;;;;;40.97;25.17;;;;;;;12.42;62.09;100613.06;6214186;23;20020;-89
2024/03/06 13:22:52;;;;;;;35.50;23.38;;;;;;;12.40;62.95;100617.59;6215244;23;20067;-89
2024/03/06 13:25:19;;;;;;;40.03;24.65;;;;;;;12.35;63.29;100617.81;6215300;23;20024;-90
2024/03/06 13:28:09;;;;;;;38.60;23.52;;;;;;;12.28;62.77;100619.03;6216469;23;20043;-90
2024/03/06 13:30:36;;;;;;;36.97;23.58;;;;;;;12.29;63.01;100618.97;6217395;23;20021;-90
2024/03/06 13:33:11;;;;;;;41.65;26.15;;;;;;;12.22;62.45;100620.19;6215566;23;20087;-90
2024/03/06 13:35:38;;;;;;;44.25;25.67;;;;;;;12.21;62.95;100615.84;6217490;23;20103;-90
2024/03/06 13:38:05;;;;;;;42.53;24.38;;;;;;;12.17;63.01;100625.72;6215741;23;20068;-90
2024/03/06 13:41:02;;;;;;;42.22;25.33;;;;;;;12.07;62.91;100627.97;6216028;23;20039;-90
2024/03/06 13:43:29;;;;;;;40.90;25.65;;;;;;;12.11;63.38;100626.88;6215572;23;20021;-89
2024/03/06 13:46:09;;;;;;;43.22;25.88;;;;;;;12.03;62.91;100629.00;6216064;23;20060;-90
2024/03/06 13:48:36;;;;;;;47.13;26.83;;;;;;;12.04;63.32;100624.59;6215953;23;20092;-90
2024/03/06 13:51:05;;;;;;;44.90;25.95;;;;;;;11.98;62.92;100628.38;6215523;23;20095;-87
2024/03/06 13:53:32;;;;;;;47.63;26.17;;;;;;;11.98;63.56;100625.75;6217136;23;20089;-90
2024/03/06 13:56:22;;;;;;;43.65;26.70;;;;;;;11.92;63.25;100626.88;6215954;23;20091;-89
2024/03/06 13:58:48;;;;;;;47.08;27.00;;;;;;;11.96;63.73;100627.63;6217052;23;20032;-90
2024/03/06 14:01:26;;;;;;;45.92;26.63;;;;;;;11.90;63.26;100630.53;6217150;23;20075;-90
2024/03/06 14:04:02;;;;;;;44.13;26.15;;;;;;;11.88;63.28;100635.88;6216739;23;20021;-90
2024/03/06 14:06:30;;;;;;;44.17;26.55;;;;;;;11.90;63.63;100633.19;6215255;23;20035;-90
2024/03/06 14:09:09;;;;;;;46.63;26.10;;;;;;;11.83;63.57;100635.25;6215553;23;20062;-89
2024/03/06 14:11:36;;;;;;;45.42;27.10;;;;;;;11.85;63.76;100631.63;6215692;23;20379;-90
2024/03/06 14:14:08;;;;;;;48.58;27.35;;;;;;;11.79;63.45;100638.97;6215486;23;20078;-90
2024/03/06 14:16:35;;;;;;;45.40;26.38;;;;;;;11.79;63.95;100637.19;6215086;23;20063;-90
2024/03/06 14:22:25;;;;;;;48.10;26.17;;;;;;;11.76;64.13;100642.59;6216969;23;20025;-90
2024/03/06 14:24:52;;;;;;;44.47;26.80;;;;;;;11.75;63.80;100645.31;6215024;23;20044;-87
2024/03/06 14:27:25;;;;;;;50.72;27.15;;;;;;;11.71;63.73;100645.44;6216830;23;20056;-89